Time;durP1;ratioP1;P1;durP2;ratioP2;P2;SDS_P1;SDS_P2;PMS_P1;PMS_P2;Temp;Humidity;BMP_temperature;BMP_pressure;BME280_temperature;BME280_humidity;BME280_pressure;Samples;Min_cycle;Max_cycle;Signal;HPM_P1;HPM_P2
2023/05/17 00:04:01;;;;;;;3.78;2.08;;;;;;;11.49;95.35;100331.34;10459160;28;20049;-66
2023/05/17 00:09:02;;;;;;;4.80;2.25;;;;;;;11.21;95.92;100313.16;10458794;28;20060;-66
2023/05/17 00:14:03;;;;;;;6.18;1.80;;;;;;;11.30;95.88;100346.69;10459784;28;20041;-66
2023/05/17 00:19:04;;;;;;;13.00;2.22;;;;;;;11.27;96.58;100367.50;10458756;28;20041;-67
2023/05/17 00:24:05;;;;;;;6.28;1.83;;;;;;;11.25;96.77;100370.34;10459670;28;20131;-67
2023/05/17 00:29:06;;;;;;;5.35;1.70;;;;;;;11.17;96.73;100383.66;10458110;28;20036;-66
2023/05/17 00:34:06;;;;;;;7.05;2.00;;;;;;;10.93;96.80;100385.38;10452356;28;20045;-66
2023/05/17 00:39:07;;;;;;;5.00;1.75;;;;;;;10.85;96.70;100384.56;10425697;28;20069;-66
2023/05/17 00:44:08;;;;;;;4.43;2.17;;;;;;;10.71;96.95;100380.78;10415512;28;20041;-66
2023/05/17 00:49:09;;;;;;;15.27;2.50;;;;;;;10.70;96.53;100387.06;10416111;28;20059;-66
2023/05/17 00:54:10;;;;;;;4.80;1.70;;;;;;;10.60;96.71;100402.34;10416978;28;20413;-66
2023/05/17 00:59:12;;;;;;;4.10;2.00;;;;;;;10.55;97.44;100394.03;10416290;28;20084;-66
2023/05/17 01:04:13;;;;;;;37.28;4.28;;;;;;;10.47;97.48;100393.06;10415747;28;20115;-66
2023/05/17 01:09:15;;;;;;;17.40;2.30;;;;;;;10.35;97.30;100393.53;10415285;28;20091;-66
2023/05/17 01:14:35;;;;;;;26.35;3.10;;;;;;;10.34;99.21;100406.00;10415662;28;20037;-66
2023/05/17 01:19:52;;;;;;;10.18;2.13;;;;;;;10.22;98.74;100384.22;10414413;28;20044;-66
2023/05/17 01:25:26;;;;;;;4.35;2.13;;;;;;;10.32;100.00;100386.75;10446693;28;20137;-66
2023/05/17 01:30:27;;;;;;;;;;;;;;;10.42;99.98;100405.19;10456006;28;20071;-66
2023/05/17 01:35:28;;;;;;;24.50;3.60;;;;;;;10.10;97.20;100390.81;10455734;28;20395;-66
2023/05/17 01:40:34;;;;;;;23.77;3.55;;;;;;;9.49;97.57;100313.28;10456040;28;20119;-66
2023/05/17 01:45:52;;;;;;;42.15;5.10;;;;;;;9.71;98.31;100348.97;10455599;28;20076;-66
2023/05/17 01:50:56;;;;;;;16.73;3.25;;;;;;;10.08;97.59;100408.75;10455029;28;20045;-66
2023/05/17 01:56:03;;;;;;;25.40;3.47;;;;;;;9.78;98.17;100338.53;10455217;28;20044;-67
2023/05/17 02:01:05;;;;;;;12.40;3.00;;;;;;;10.37;97.46;100423.41;10453896;28;20048;-66
2023/05/17 02:06:06;;;;;;;9.50;2.42;;;;;;;10.44;96.96;100400.50;10454364;28;20127;-67
2023/05/17 02:11:07;;;;;;;4.15;1.95;;;;;;;10.73;96.98;100421.25;10445033;28;20039;-67
2023/05/17 02:16:08;;;;;;;5.50;1.67;;;;;;;10.98;96.71;100427.41;10454810;28;20045;-67
2023/05/17 02:21:10;;;;;;;11.90;2.25;;;;;;;11.22;96.79;100418.53;10433125;28;20044;-68
2023/05/17 02:26:11;;;;;;;3.67;1.52;;;;;;;11.79;96.58;100425.47;10419894;28;20053;-66
2023/05/17 02:31:12;;;;;;;2.95;1.75;;;;;;;12.52;95.53;100417.03;10430717;28;20041;-67
2023/05/17 02:36:13;;;;;;;4.28;1.38;;;;;;;13.11;93.48;100347.00;10421767;28;20046;-67
2023/05/17 02:41:14;;;;;;;4.18;1.27;;;;;;;14.50;90.21;100417.19;10423322;28;20109;-68
2023/05/17 02:46:14;;;;;;;2.55;1.30;;;;;;;15.40;85.60;100417.47;10436906;28;20136;-68
2023/05/17 02:51:15;;;;;;;2.55;1.50;;;;;;;16.27;81.76;100432.84;10457329;28;20048;-68
2023/05/17 02:56:16;;;;;;;3.85;1.38;;;;;;;17.03;78.42;100418.28;10445189;28;20046;-68
2023/05/17 03:01:17;;;;;;;3.55;1.23;;;;;;;18.12;73.65;100432.81;10419118;28;20556;-67
2023/05/17 03:06:17;;;;;;;2.65;1.20;;;;;;;19.10;69.57;100427.75;10421260;28;20037;-67
2023/05/17 03:11:18;;;;;;;2.42;1.33;;;;;;;19.63;67.19;100423.69;10420495;28;20512;-67
2023/05/17 03:16:19;;;;;;;2.75;1.20;;;;;;;20.50;64.39;100442.25;10420459;28;20098;-67
2023/05/17 03:21:20;;;;;;;1.88;1.17;;;;;;;20.87;61.81;100428.59;10420321;28;20047;-67
2023/05/17 03:26:22;;;;;;;1.73;1.10;;;;;;;21.11;59.88;100397.00;10419847;28;20136;-68
2023/05/17 03:31:24;;;;;;;12.90;2.53;;;;;;;21.63;59.02;100422.22;10419726;28;20041;-67
2023/05/17 03:36:25;;;;;;;2.67;1.45;;;;;;;22.40;56.98;100431.00;10419549;28;20099;-67
2023/05/17 03:41:25;;;;;;;1.67;1.13;;;;;;;21.80;55.33;100314.09;10418747;28;20041;-67
2023/05/17 03:46:26;;;;;;;11.60;1.63;;;;;;;21.78;55.80;100354.13;10418977;28;20049;-67
2023/05/17 03:51:27;;;;;;;5.03;1.20;;;;;;;22.49;53.85;100432.22;10418901;28;20448;-67
2023/05/17 03:56:28;;;;;;;2.35;1.10;;;;;;;22.80;52.89;100403.78;10413083;28;20045;-67
2023/05/17 04:01:28;;;;;;;2.28;1.08;;;;;;;23.11;51.77;100383.38;10433569;28;20049;-67
2023/05/17 04:06:29;;;;;;;2.50;1.20;;;;;;;23.62;50.99;100426.63;10419162;28;20060;-66
2023/05/17 04:11:31;;;;;;;4.40;1.20;;;;;;;23.28;50.84;100366.28;10415330;28;20052;-66
2023/05/17 04:16:32;;;;;;;3.67;1.13;;;;;;;23.54;50.24;100372.81;10417743;28;20037;-67
2023/05/17 04:21:33;;;;;;;1.67;1.00;;;;;;;23.41;50.87;100417.41;10416509;28;20489;-66
2023/05/17 04:26:34;;;;;;;4.95;1.30;;;;;;;23.47;50.66;100416.41;10417382;28;20057;-66
2023/05/17 04:31:35;;;;;;;4.95;1.20;;;;;;;23.27;49.85;100342.94;10417259;28;20063;-66
2023/05/17 04:36:35;;;;;;;5.03;1.08;;;;;;;23.93;50.37;100397.97;10416205;28;20041;-70
2023/05/17 04:41:36;;;;;;;2.80;1.10;;;;;;;24.04;50.54;100401.63;10417521;28;20033;-66
2023/05/17 04:46:37;;;;;;;4.75;1.30;;;;;;;23.90;49.38;100409.31;10415047;28;20497;-66
2023/05/17 04:51:38;;;;;;;4.40;1.10;;;;;;;23.66;49.59;100404.19;10417768;28;20041;-67
2023/05/17 04:56:39;;;;;;;2.70;0.93;;;;;;;22.96;50.13;100397.53;10440588;28;20071;-66
2023/05/17 05:01:40;;;;;;;1.75;0.82;;;;;;;22.46;50.82;100381.28;10446069;28;20037;-66
2023/05/17 05:06:40;;;;;;;1.30;0.80;;;;;;;21.34;51.36;100269.16;10413476;28;20041;-65
2023/05/17 05:11:41;;;;;;;1.73;0.80;;;;;;;21.37;52.16;100391.13;10415657;28;20141;-67
2023/05/17 05:16:42;;;;;;;2.58;0.80;;;;;;;21.26;53.27;100399.22;10449837;28;20098;-66
2023/05/17 05:21:46;;;;;;;2.70;0.98;;;;;;;21.29;53.83;100407.66;10416587;28;20049;-66
2023/05/17 05:26:47;;;;;;;2.92;0.80;;;;;;;21.25;52.52;100401.09;10415171;28;20061;-66
2023/05/17 05:31:47;;;;;;;2.22;0.80;;;;;;;20.75;51.79;100351.09;10416054;28;20505;-66
2023/05/17 05:36:48;;;;;;;2.08;0.82;;;;;;;20.60;51.38;100317.56;10414273;28;20041;-66
2023/05/17 05:41:50;;;;;;;6.50;0.98;;;;;;;20.71;51.74;100322.13;10413949;28;20049;-66
2023/05/17 05:46:51;;;;;;;1.73;0.70;;;;;;;21.19;50.78;100396.66;10414335;28;20494;-66
2023/05/17 05:51:52;;;;;;;1.52;0.88;;;;;;;21.25;50.36;100398.41;10413691;28;20046;-66
2023/05/17 05:56:54;;;;;;;1.23;0.70;;;;;;;20.84;49.51;100329.97;10414310;28;20167;-67
2023/05/17 06:01:54;;;;;;;1.02;0.60;;;;;;;21.28;48.66;100376.31;10413880;28;20095;-67
2023/05/17 06:06:55;;;;;;;2.58;0.68;;;;;;;21.21;48.66;100386.44;10413226;28;20409;-66
2023/05/17 06:11:56;;;;;;;2.58;0.80;;;;;;;21.37;48.52;100384.91;10424184;28;20060;-66
2023/05/17 06:16:56;;;;;;;1.00;0.68;;;;;;;21.48;48.17;100389.47;10413023;28;20398;-66
2023/05/17 06:21:57;;;;;;;1.98;0.70;;;;;;;21.41;48.37;100370.66;10414229;28;20041;-65
2023/05/17 06:26:58;;;;;;;1.55;0.80;;;;;;;21.51;48.42;100371.94;10413695;28;20136;-66
2023/05/17 06:32:00;;;;;;;3.50;1.00;;;;;;;21.56;48.19;100385.56;10412469;28;20103;-66
2023/05/17 06:37:02;;;;;;;3.83;0.90;;;;;;;21.71;47.63;100385.88;10413043;28;20103;-66
2023/05/17 06:42:03;;;;;;;2.53;0.82;;;;;;;21.87;47.57;100398.63;10412036;28;20413;-65
2023/05/17 06:47:04;;;;;;;2.47;0.60;;;;;;;21.64;45.48;100390.59;10411813;28;20137;-66
2023/05/17 06:52:05;;;;;;;1.25;0.82;;;;;;;21.26;46.01;100323.56;10421745;28;20042;-66
2023/05/17 06:57:06;;;;;;;1.33;0.80;;;;;;;21.97;45.80;100394.47;10411992;28;20045;-67
2023/05/17 07:02:06;;;;;;;1.42;0.80;;;;;;;22.13;44.56;100396.38;10424756;28;20041;-65
2023/05/17 07:07:07;;;;;;;1.83;0.73;;;;;;;22.16;44.07;100385.06;10418983;28;20099;-65
2023/05/17 07:12:08;;;;;;;1.90;0.90;;;;;;;22.28;44.35;100372.31;10411851;28;20412;-65
2023/05/17 07:17:10;;;;;;;1.83;0.70;;;;;;;22.57;42.98;100377.69;10411681;28;20132;-65
2023/05/17 07:22:11;;;;;;;1.92;0.85;;;;;;;22.77;43.98;100374.47;10412347;28;20038;-66
2023/05/17 07:27:11;;;;;;;1.20;0.75;;;;;;;22.38;43.04;100330.28;10411989;28;20065;-65
2023/05/17 07:32:12;;;;;;;5.03;0.70;;;;;;;22.92;42.81;100382.00;10419257;28;20037;-65
2023/05/17 07:37:13;;;;;;;1.90;0.80;;;;;;;22.55;42.77;100320.25;10419085;28;20489;-66
2023/05/17 07:42:14;;;;;;;1.60;0.70;;;;;;;22.96;42.56;100378.56;10429745;28;20502;-65
2023/05/17 07:47:15;;;;;;;1.77;0.90;;;;;;;22.86;42.09;100383.00;10419589;28;20041;-66
2023/05/17 07:52:15;;;;;;;5.97;0.90;;;;;;;22.89;41.55;100383.34;10418240;28;20048;-66
2023/05/17 07:57:17;;;;;;;18.25;2.85;;;;;;;23.00;42.69;100330.97;10418511;28;20385;-66
2023/05/17 08:02:18;;;;;;;15.40;2.95;;;;;;;23.34;41.24;100365.28;10417104;28;20042;-66
2023/05/17 08:07:18;;;;;;;3.20;1.00;;;;;;;23.15;41.58;100365.56;10416885;28;20067;-66
2023/05/17 08:12:19;;;;;;;8.07;2.33;;;;;;;22.85;42.24;100284.66;10417025;28;20045;-64
2023/05/17 08:17:21;;;;;;;13.23;3.50;;;;;;;23.60;42.73;100353.66;10417482;28;20044;-66
2023/05/17 08:22:22;;;;;;;5.30;1.52;;;;;;;23.29;43.31;100357.06;10418419;28;20417;-66
2023/05/17 08:27:24;;;;;;;10.15;2.53;;;;;;;23.65;42.21;100367.25;10418292;28;20053;-67
2023/05/17 08:32:25;;;;;;;4.25;2.08;;;;;;;23.37;41.92;100354.75;10417425;28;20354;-66
2023/05/17 08:37:25;;;;;;;5.47;1.40;;;;;;;23.20;41.95;100362.09;10416316;28;20049;-66
2023/05/17 08:42:28;;;;;;;6.75;1.80;;;;;;;23.16;42.15;100280.50;10416243;28;20052;-66
2023/05/17 08:47:32;;;;;;;5.28;1.40;;;;;;;23.55;41.96;100359.03;10416928;28;20064;-66
2023/05/17 08:52:35;;;;;;;3.25;1.48;;;;;;;22.61;41.97;100275.13;10416891;28;20124;-66
2023/05/17 08:57:39;;;;;;;5.95;1.52;;;;;;;23.33;41.78;100353.59;10416469;28;20076;-66
2023/05/17 09:02:42;;;;;;;2.28;1.33;;;;;;;23.57;39.58;100356.03;10415561;28;20037;-66
2023/05/17 09:07:43;;;;;;;;;;;;;;;24.22;40.55;100365.16;10415876;28;20037;-66
2023/05/17 09:12:45;;;;;;;7.07;1.35;;;;;;;23.57;39.54;100294.53;10421450;28;19913;-66
2023/05/17 09:17:53;;;;;;;4.97;2.80;;;;;;;23.99;39.10;100364.41;10446208;28;20114;-67
2023/05/17 09:22:54;;;;;;;6.13;3.22;;;;;;;23.74;39.51;100326.16;10414757;28;20077;-67
2023/05/17 09:28:00;;;;;;;4.85;1.90;;;;;;;24.07;38.42;100331.34;10415369;28;20552;-65
2023/05/17 09:33:06;;;;;;;4.95;2.22;;;;;;;24.01;37.63;100329.69;10415137;28;20102;-66
2023/05/17 09:38:09;;;;;;;6.93;2.67;;;;;;;23.65;38.58;100321.16;10414614;28;20064;-66
2023/05/17 09:43:11;;;;;;;11.85;5.68;;;;;;;23.94;38.47;100326.38;10415017;28;20116;-68
2023/05/17 09:48:15;;;;;;;5.05;2.75;;;;;;;24.25;38.24;100315.78;10414419;28;20045;-66
2023/05/17 09:53:42;;;;;;;7.47;3.40;;;;;;;24.74;37.71;100302.00;10413150;28;20052;-66
2023/05/17 09:58:43;;;;;;;11.18;4.32;;;;;;;24.65;37.44;100250.09;10413317;28;20493;-67
2023/05/17 10:03:44;;;;;;;13.90;3.60;;;;;;;24.75;37.52;100295.50;10413932;28;20516;-67
2023/05/17 10:08:50;;;;;;;6.18;3.38;;;;;;;24.52;36.31;100277.72;10413212;28;20037;-67
2023/05/17 10:14:12;;;;;;;5.80;2.90;;;;;;;25.00;35.13;100306.50;10413785;28;20038;-67
2023/05/17 10:19:13;;;;;;;8.60;3.47;;;;;;;24.56;36.64;100285.09;10413012;28;20128;-67
2023/05/17 10:24:15;;;;;;;6.20;3.40;;;;;;;24.70;36.88;100290.03;10413584;28;20064;-67
2023/05/17 10:29:19;;;;;;;4.55;3.05;;;;;;;24.07;37.19;100211.97;10413953;28;20057;-67
2023/05/17 10:34:20;;;;;;;8.00;3.45;;;;;;;24.06;37.16;100289.03;10413157;28;20080;-67
2023/05/17 10:39:21;;;;;;;6.80;3.58;;;;;;;24.01;35.98;100223.84;10412843;28;20479;-66
2023/05/17 10:44:22;;;;;;;8.45;4.28;;;;;;;24.30;37.07;100291.38;10412546;28;20045;-66
2023/05/17 10:49:29;;;;;;;6.97;4.20;;;;;;;23.92;37.94;100291.34;10413281;28;20038;-66
2023/05/17 10:54:35;;;;;;;7.15;3.70;;;;;;;23.53;38.01;100285.22;10412711;28;20096;-66
2023/05/17 10:59:55;;;;;;;6.90;4.15;;;;;;;23.60;39.59;100272.31;10412770;28;20051;-66
2023/05/17 11:04:56;;;;;;;10.18;4.70;;;;;;;24.05;37.38;100235.00;10438619;28;20037;-67
2023/05/17 11:10:05;;;;;;;6.28;4.32;;;;;;;24.56;35.38;100263.38;10455466;28;20408;-67
2023/05/17 11:15:09;;;;;;;9.10;4.40;;;;;;;24.68;35.43;100263.16;10420238;28;20037;-64
2023/05/17 11:20:13;;;;;;;10.40;4.82;;;;;;;24.30;35.88;100256.91;10418628;28;20045;-67
2023/05/17 11:25:16;;;;;;;8.65;4.97;;;;;;;23.78;37.56;100273.88;10420132;28;20488;-67
2023/05/17 11:30:30;;;;;;;14.48;5.05;;;;;;;23.78;36.95;100256.75;10431832;28;20080;-66
2023/05/17 11:35:36;;;;;;;15.93;4.80;;;;;;;23.38;35.92;100133.28;10432154;28;20037;-66
2023/05/17 11:40:37;;;;;;;9.95;4.85;;;;;;;24.66;35.59;100245.50;10419440;28;20056;-67
2023/05/17 11:45:44;;;;;;;11.77;5.10;;;;;;;24.99;33.85;100247.00;10419484;28;20401;-67
2023/05/17 11:50:48;;;;;;;11.80;4.57;;;;;;;25.41;34.22;100230.56;10418435;28;20048;-66
2023/05/17 11:55:50;;;;;;;7.55;4.85;;;;;;;25.54;33.98;100231.94;10418184;28;20049;-67
2023/05/17 12:00:55;;;;;;;9.02;4.65;;;;;;;24.80;35.29;100241.22;10418635;28;20045;-67
2023/05/17 12:06:12;;;;;;;17.75;5.93;;;;;;;24.22;36.91;100219.38;10418599;28;20172;-67
2023/05/17 12:11:17;;;;;;;10.27;4.80;;;;;;;23.65;37.35;100242.50;10418330;28;20378;-66
2023/05/17 12:16:21;;;;;;;20.63;5.57;;;;;;;22.84;39.41;100233.47;10416962;28;20049;-67
2023/05/17 12:21:21;;;;;;;16.60;5.80;;;;;;;22.63;42.06;100246.72;10417927;28;20049;-67
2023/05/17 12:26:23;;;;;;;8.32;4.68;;;;;;;22.66;40.60;100251.66;10417566;28;20068;-67
2023/05/17 12:31:30;;;;;;;17.10;5.60;;;;;;;22.85;38.63;100246.75;10415943;28;20056;-67
2023/05/17 12:36:32;;;;;;;8.38;5.10;;;;;;;22.69;38.52;100213.25;10421917;28;20041;-65
2023/05/17 12:41:34;;;;;;;14.20;5.15;;;;;;;22.67;38.93;100182.06;10448784;28;20055;-66
2023/05/17 12:46:35;;;;;;;11.50;5.00;;;;;;;23.04;38.75;100236.47;10458251;28;20052;-66
2023/05/17 12:51:43;;;;;;;9.15;5.68;;;;;;;23.16;38.66;100244.47;10457963;28;20127;-66
2023/05/17 12:56:44;;;;;;;15.20;4.65;;;;;;;23.32;37.45;100215.63;10458058;28;20044;-67
2023/05/17 13:01:46;;;;;;;9.50;4.63;;;;;;;23.78;34.95;100226.91;10456797;28;20045;-68
2023/05/17 13:06:52;;;;;;;27.27;5.57;;;;;;;24.46;33.39;100240.75;10457160;28;20063;-66
2023/05/17 13:11:54;;;;;;;10.18;5.05;;;;;;;24.17;33.63;100150.69;10457113;28;20052;-69
2023/05/17 13:16:55;;;;;;;12.27;5.53;;;;;;;24.26;34.28;100216.97;10456223;28;20036;-65
2023/05/17 13:21:56;;;;;;;8.70;5.15;;;;;;;23.99;34.27;100198.91;10457518;28;20041;-66
2023/05/17 13:26:57;;;;;;;13.20;4.45;;;;;;;24.23;34.32;100242.75;10455827;28;20140;-67
2023/05/17 13:31:57;;;;;;;8.65;4.88;;;;;;;24.16;34.20;100234.00;10455864;28;20483;-67
2023/05/17 13:36:58;;;;;;;10.25;5.07;;;;;;;23.53;34.67;100138.81;10456141;28;20048;-67
2023/05/17 13:41:59;;;;;;;10.07;4.78;;;;;;;23.70;34.48;100179.41;10456786;28;20065;-66
2023/05/17 13:47:00;;;;;;;9.65;4.95;;;;;;;24.17;34.89;100237.53;10454492;28;20056;-67
2023/05/17 13:52:02;;;;;;;8.25;5.13;;;;;;;24.04;34.37;100234.19;10455600;28;20041;-66
2023/05/17 13:57:04;;;;;;;8.40;5.05;;;;;;;23.56;34.85;100251.38;10454977;28;20124;-66
2023/05/17 14:02:05;;;;;;;62.17;33.42;;;;;;;22.87;35.90;100224.84;10455388;28;20041;-66
2023/05/17 14:07:05;;;;;;;16.67;8.15;;;;;;;22.56;36.72;100230.69;10450191;28;20045;-67
2023/05/17 14:12:06;;;;;;;13.43;7.68;;;;;;;22.38;37.46;100235.56;10431417;28;20053;-66
2023/05/17 14:17:07;;;;;;;9.15;6.35;;;;;;;21.80;38.01;100168.09;10451043;28;20041;-67
2023/05/17 14:22:08;;;;;;;9.38;5.85;;;;;;;22.09;38.42;100232.94;10436518;28;20048;-68
2023/05/17 14:27:09;;;;;;;18.00;6.07;;;;;;;21.97;38.85;100243.81;10412644;28;20068;-67
2023/05/17 14:32:11;;;;;;;11.73;6.43;;;;;;;22.05;39.27;100219.09;10412719;28;20041;-67
2023/05/17 14:37:13;;;;;;;18.63;7.00;;;;;;;22.32;39.74;100227.38;10412825;28;20485;-67
2023/05/17 14:42:14;;;;;;;13.88;5.75;;;;;;;22.65;39.05;100222.13;10412757;28;20091;-67
2023/05/17 14:47:15;;;;;;;8.40;5.13;;;;;;;22.93;38.33;100224.63;10413075;28;20481;-66
2023/05/17 14:52:16;;;;;;;6.55;4.85;;;;;;;23.12;37.80;100206.19;10412143;28;20065;-67
2023/05/17 14:57:17;;;;;;;10.10;5.93;;;;;;;23.35;36.73;100215.91;10412539;28;20076;-67
2023/05/17 15:02:18;;;;;;;10.57;4.63;;;;;;;23.26;38.21;100238.31;10412787;28;20038;-67
2023/05/17 15:07:19;;;;;;;13.40;6.78;;;;;;;22.96;37.61;100236.91;10412299;28;20037;-68
2023/05/17 15:12:20;;;;;;;14.90;5.68;;;;;;;22.59;37.59;100223.13;10413198;28;20398;-67
2023/05/17 15:17:21;;;;;;;12.25;4.40;;;;;;;22.06;37.92;100154.97;10411828;28;20037;-67
2023/05/17 15:22:22;;;;;;;6.88;3.38;;;;;;;22.03;38.01;100177.94;10442333;28;20436;-68
2023/05/17 15:27:23;;;;;;;11.98;3.70;;;;;;;21.69;38.30;100185.25;10442354;28;20064;-68
2023/05/17 15:32:24;;;;;;;12.48;5.30;;;;;;;21.79;38.52;100247.59;10422149;28;20527;-67
2023/05/17 15:37:25;;;;;;;22.25;4.53;;;;;;;21.57;39.65;100244.78;10431279;28;20132;-68
2023/05/17 15:42:26;;;;;;;8.75;5.43;;;;;;;21.50;39.50;100251.38;10427127;28;20569;-67
2023/05/17 15:47:26;;;;;;;15.30;8.70;;;;;;;21.25;39.33;100225.50;10429232;28;20075;-67
2023/05/17 15:52:27;;;;;;;11.32;5.43;;;;;;;21.22;39.51;100242.19;10439022;28;20033;-68
2023/05/17 15:57:28;;;;;;;16.42;5.75;;;;;;;20.86;39.88;100206.38;10433479;28;20132;-67
2023/05/17 16:02:29;;;;;;;27.42;6.65;;;;;;;20.93;40.22;100244.03;10436801;28;20083;-68
2023/05/17 16:07:30;;;;;;;11.10;5.88;;;;;;;20.89;40.66;100264.47;10443762;28;20511;-67
2023/05/17 16:12:31;;;;;;;17.85;6.63;;;;;;;20.57;41.32;100258.66;10437824;28;20041;-67
2023/05/17 16:17:32;;;;;;;15.90;6.10;;;;;;;20.29;42.26;100266.38;10438098;28;20056;-68
2023/05/17 16:22:32;;;;;;;16.77;6.95;;;;;;;20.13;42.78;100269.75;10438038;28;20120;-68
2023/05/17 16:27:33;;;;;;;19.20;6.18;;;;;;;19.59;42.99;100228.47;10442387;28;20062;-67
2023/05/17 16:32:34;;;;;;;13.82;5.65;;;;;;;19.58;43.91;100272.63;10417549;28;20045;-67
2023/05/17 16:37:35;;;;;;;15.57;6.10;;;;;;;19.08;45.75;100249.44;10417293;28;20428;-66
2023/05/17 16:42:36;;;;;;;13.00;6.43;;;;;;;18.83;47.21;100273.78;10417241;28;20034;-66
2023/05/17 16:47:37;;;;;;;15.85;6.50;;;;;;;17.90;48.46;100177.03;10417550;28;20037;-67
2023/05/17 16:52:38;;;;;;;34.03;7.10;;;;;;;18.00;49.85;100241.84;10415384;28;20055;-67
2023/05/17 16:57:40;;;;;;;17.80;5.40;;;;;;;17.92;50.42;100264.44;10416907;28;20048;-67
2023/05/17 17:02:41;;;;;;;13.68;5.60;;;;;;;16.87;51.56;100133.28;10415623;28;20041;-66
2023/05/17 17:07:44;;;;;;;10.43;5.15;;;;;;;17.43;53.11;100286.63;10415686;28;20087;-66
2023/05/17 17:12:46;;;;;;;11.48;5.70;;;;;;;17.03;54.15;100251.91;10415335;28;20038;-66
2023/05/17 17:17:47;;;;;;;16.23;6.07;;;;;;;17.05;54.90;100292.75;10415790;28;20052;-66
2023/05/17 17:22:48;;;;;;;16.20;6.68;;;;;;;16.40;55.81;100229.13;10415051;28;20041;-65
2023/05/17 17:27:50;;;;;;;13.40;6.60;;;;;;;16.22;57.59;100239.69;10415898;28;20061;-65
2023/05/17 17:32:50;;;;;;;24.10;8.70;;;;;;;16.19;58.18;100261.53;10415708;28;20033;-66
2023/05/17 17:37:52;;;;;;;23.88;8.68;;;;;;;16.00;59.79;100262.34;10414881;28;20053;-67
2023/05/17 17:42:52;;;;;;;18.00;7.72;;;;;;;16.01;60.79;100294.31;10414733;28;20057;-67
2023/05/17 17:47:53;;;;;;;23.35;7.68;;;;;;;15.36;61.39;100212.78;10414719;28;20044;-66
2023/05/17 17:52:54;;;;;;;14.18;7.40;;;;;;;15.61;62.47;100293.38;10423763;28;20044;-67
2023/05/17 17:57:55;;;;;;;11.38;6.97;;;;;;;15.40;63.57;100286.31;10413022;28;20052;-67
2023/05/17 18:02:55;;;;;;;12.77;6.72;;;;;;;15.20;64.88;100291.59;10414621;28;20041;-67
2023/05/17 18:07:56;;;;;;;11.50;6.25;;;;;;;14.76;65.84;100255.38;10416153;28;20045;-67
2023/05/17 18:12:57;;;;;;;15.65;6.55;;;;;;;14.88;66.85;100285.06;10421860;28;20050;-69
2023/05/17 18:17:58;;;;;;;19.50;5.72;;;;;;;14.59;67.45;100238.81;10418276;28;20045;-67
2023/05/17 18:22:59;;;;;;;10.85;5.85;;;;;;;14.57;67.81;100292.47;10433887;28;20124;-67
2023/05/17 18:28:00;;;;;;;11.15;5.90;;;;;;;14.02;68.36;100200.56;10455055;28;20056;-67
2023/05/17 18:33:01;;;;;;;11.43;6.70;;;;;;;14.34;68.94;100268.63;10425381;28;20046;-67
2023/05/17 18:38:02;;;;;;;12.85;6.30;;;;;;;14.22;69.48;100280.06;10412670;28;20080;-67
2023/05/17 18:43:02;;;;;;;12.10;6.50;;;;;;;14.06;69.95;100271.31;10413500;28;20459;-67
2023/05/17 18:48:04;;;;;;;12.38;6.57;;;;;;;13.98;70.17;100274.09;10413743;28;20084;-67
2023/05/17 18:53:05;;;;;;;12.85;7.18;;;;;;;13.91;70.88;100263.38;10412127;28;20099;-67
2023/05/17 18:58:06;;;;;;;20.98;7.18;;;;;;;13.84;71.10;100272.31;10411747;28;20053;-67
2023/05/17 19:03:07;;;;;;;14.75;6.95;;;;;;;13.68;71.50;100252.06;10412280;28;20041;-67
2023/05/17 19:08:07;;;;;;;21.70;7.60;;;;;;;13.64;71.90;100256.94;10413787;28;20049;-67
2023/05/17 19:13:08;;;;;;;15.80;6.97;;;;;;;13.58;72.39;100251.53;10412543;28;20045;-67
2023/05/17 19:18:09;;;;;;;12.25;6.88;;;;;;;13.39;72.85;100226.28;10413904;28;20041;-67
2023/05/17 19:23:10;;;;;;;17.10;6.85;;;;;;;13.43;73.30;100243.56;10421028;28;20481;-67
2023/05/17 19:28:11;;;;;;;11.55;6.10;;;;;;;12.91;73.51;100160.09;10420140;28;20057;-67
2023/05/17 19:33:11;;;;;;;10.63;5.88;;;;;;;13.18;73.78;100230.53;10419966;28;20140;-68
2023/05/17 19:38:12;;;;;;;13.57;6.05;;;;;;;13.14;74.84;100223.13;10418852;28;20033;-67
2023/05/17 19:43:13;;;;;;;11.32;5.28;;;;;;;13.02;74.68;100204.09;10419174;28;20068;-67
2023/05/17 19:48:14;;;;;;;14.50;6.15;;;;;;;12.87;75.27;100213.97;10418359;28;20073;-67
2023/05/17 19:53:15;;;;;;;12.98;5.75;;;;;;;12.79;74.78;100218.38;10418449;28;20045;-67
2023/05/17 19:58:16;;;;;;;10.38;6.07;;;;;;;12.57;75.18;100198.00;10418272;28;20053;-66
2023/05/17 20:03:19;;;;;;;15.95;6.47;;;;;;;12.67;75.71;100203.88;10417743;28;20558;-66
2023/05/17 20:08:20;;;;;;;11.98;5.85;;;;;;;12.68;76.02;100218.03;10429056;28;20073;-67
2023/05/17 20:13:27;;;;;;;17.85;6.65;;;;;;;12.53;76.63;100221.53;10418172;28;20095;-67
2023/05/17 20:18:29;;;;;;;12.48;6.55;;;;;;;12.31;77.48;100201.94;10418079;28;20082;-67
2023/05/17 20:23:30;;;;;;;11.70;6.35;;;;;;;12.41;77.27;100219.50;10417385;28;20052;-67
2023/05/17 20:28:30;;;;;;;9.35;6.18;;;;;;;12.28;77.36;100212.97;10433605;28;20108;-67
2023/05/17 20:33:31;;;;;;;12.90;5.93;;;;;;;11.77;77.69;100129.41;10459702;28;20064;-67
2023/05/17 20:38:32;;;;;;;11.45;6.50;;;;;;;12.19;78.37;100199.91;10435534;28;20045;-67
2023/05/17 20:43:33;;;;;;;11.13;6.55;;;;;;;12.09;78.77;100198.34;10417072;28;20057;-67
2023/05/17 20:48:35;;;;;;;19.75;7.78;;;;;;;11.95;79.54;100190.31;10417558;28;20165;-67
2023/05/17 20:53:36;;;;;;;13.57;6.32;;;;;;;11.37;80.35;100094.19;10416201;28;20046;-67
2023/05/17 20:58:37;;;;;;;11.10;5.72;;;;;;;11.94;80.08;100178.03;10417168;28;20048;-67
2023/05/17 21:03:38;;;;;;;62.60;10.32;;;;;;;11.66;80.60;100151.94;10416684;28;20501;-67
2023/05/17 21:08:39;;;;;;;12.35;6.75;;;;;;;11.11;80.62;100063.47;10416458;28;20041;-67
2023/05/17 21:13:40;;;;;;;16.00;7.75;;;;;;;11.66;80.71;100157.28;10415937;28;20041;-67
2023/05/17 21:18:41;;;;;;;15.13;7.00;;;;;;;11.68;81.32;100165.09;10415863;28;20049;-66
2023/05/17 21:23:41;;;;;;;11.18;6.70;;;;;;;11.60;81.45;100166.78;10415029;28;20136;-67
2023/05/17 21:28:42;;;;;;;10.38;6.13;;;;;;;10.69;81.50;100016.13;10426631;28;20551;-67
2023/05/17 21:33:43;;;;;;;13.32;6.93;;;;;;;11.54;81.32;100150.72;10414183;28;20075;-67
2023/05/17 21:38:44;;;;;;;12.50;7.05;;;;;;;11.44;81.80;100129.69;10415261;28;20124;-67
2023/05/17 21:43:45;;;;;;;15.48;6.28;;;;;;;11.42;81.56;100129.03;10414132;28;20041;-67
2023/05/17 21:48:45;;;;;;;16.27;7.20;;;;;;;11.35;82.14;100136.09;10414038;28;20397;-67
2023/05/17 21:53:49;;;;;;;9.82;6.45;;;;;;;11.30;82.04;100131.28;10414332;28;20056;-67
2023/05/17 21:58:49;;;;;;;16.27;7.22;;;;;;;10.85;82.89;100063.81;10413949;28;20042;-67
2023/05/17 22:03:52;;;;;;;14.32;7.55;;;;;;;10.68;83.33;100041.06;10414166;28;20029;-67
2023/05/17 22:08:52;;;;;;;10.38;6.88;;;;;;;10.67;83.52;100031.41;10414009;28;20041;-67
2023/05/17 22:13:53;;;;;;;8.43;6.22;;;;;;;10.94;83.45;100076.06;10412533;28;20090;-67
2023/05/17 22:18:54;;;;;;;12.27;6.75;;;;;;;10.67;83.33;100036.72;10413549;28;20152;-67
2023/05/17 22:23:55;;;;;;;10.57;6.50;;;;;;;10.78;83.33;100081.50;10414426;28;20049;-67
2023/05/17 22:28:56;;;;;;;12.63;7.15;;;;;;;9.83;84.03;99936.44;10413954;28;20136;-67
2023/05/17 22:33:57;;;;;;;11.32;6.47;;;;;;;10.77;84.66;100079.84;10413786;28;20045;-67
2023/05/17 22:38:58;;;;;;;11.43;6.78;;;;;;;10.68;84.46;100086.22;10430372;28;20132;-67
2023/05/17 22:43:58;;;;;;;9.13;6.40;;;;;;;10.59;85.07;100069.50;10454627;28;20041;-67
2023/05/17 22:49:00;;;;;;;8.55;6.43;;;;;;;10.65;85.08;100074.09;10453642;28;20044;-67
2023/05/17 22:54:02;;;;;;;12.13;6.43;;;;;;;10.62;85.07;100085.09;10454023;28;20041;-67
2023/05/17 22:59:03;;;;;;;12.95;7.03;;;;;;;10.43;85.22;100041.16;10449315;28;20044;-67
2023/05/17 23:04:04;;;;;;;13.10;6.90;;;;;;;10.11;85.34;99988.22;10425610;28;20412;-67